Time;durP1;ratioP1;P1;durP2;ratioP2;P2;SDS_P1;SDS_P2;PMS_P1;PMS_P2;Temp;Humidity;BMP_temperature;BMP_pressure;BME280_temperature;BME280_humidity;BME280_pressure;Samples;Min_cycle;Max_cycle;Signal;HPM_P1;HPM_P2
2022/05/29 00:00:13;;;;;;;;;;;;;;;11.50;99.72;101865.72;5014292;28;20390;-35
2022/05/29 00:02:41;;;;;;;;;;;;;;;11.50;99.79;101860.13;5013521;28;19921;-33
2022/05/29 00:05:10;;;;;;;;;;;;;;;11.51;100.00;101861.81;5014305;28;19921;-38
2022/05/29 00:07:39;;;;;;;;;;;;;;;11.50;100.00;101858.19;5013684;28;19941;-35
2022/05/29 00:10:10;;;;;;;;;;;;;;;11.48;99.87;101857.63;5013942;28;20399;-35
2022/05/29 00:12:39;;;;;;;;;;;;;;;11.46;99.76;101854.25;5014164;28;19928;-33
2022/05/29 00:15:09;;;;;;;;;;;;;;;11.46;99.89;101853.41;5013273;28;19922;-31
2022/05/29 00:17:36;;;;;;;;;;;;;;;11.49;100.00;101852.88;5014088;28;19925;-31
2022/05/29 00:20:04;;;;;;;;;;;;;;;11.48;100.00;101845.59;5013738;28;19929;-32
2022/05/29 00:22:32;;;;;;;;;;;;;;;11.48;100.00;101849.22;5013080;28;19921;-35
2022/05/29 00:25:02;;;;;;;;;;;;;;;11.47;99.80;101846.72;5013803;28;19921;-30
2022/05/29 00:27:29;;;;;;;;;;;;;;;11.47;99.52;101841.13;5013534;28;19921;-33
2022/05/29 00:29:57;;;;;;;;;;;;;;;11.45;99.01;101835.81;5013057;28;19925;-36
2022/05/29 00:32:25;;;;;;;;;;;;;;;11.44;98.39;101839.72;5013565;28;20306;-33
2022/05/29 00:34:53;;;;;;;;;;;;;;;11.44;97.83;101838.88;5013531;28;19929;-35
2022/05/29 00:37:20;;;;;;;;;;;;;;;11.46;98.56;101839.44;5012784;28;19921;-34
2022/05/29 00:39:49;;;;;;;;;;;;;;;11.44;99.54;101831.34;5013695;28;19921;-35
2022/05/29 00:42:19;;;;;;;;;;;;;;;11.46;100.00;101834.69;5013590;28;19932;-32
2022/05/29 00:44:47;;;;;;;;;;;;;;;11.47;100.00;101824.34;5012595;28;19925;-36
2022/05/29 00:47:15;;;;;;;;;;;;;;;11.47;100.00;101821.56;5012710;28;20363;-31
2022/05/29 00:49:44;;;;;;;;;;;;;;;11.47;100.00;101825.19;5013242;28;19932;-29
2022/05/29 00:52:14;;;;;;;;;;;;;;;11.42;100.00;101822.41;5012470;28;19921;-34
2022/05/29 00:54:43;;;;;;;;;;;;;;;11.38;100.00;101826.91;5013325;28;19933;-32
2022/05/29 00:57:11;;;;;;;;;;;;;;;11.33;100.00;101835.28;5012529;28;19928;-31
2022/05/29 00:59:41;;;;;;;;;;;;;;;11.27;100.00;101833.59;5013072;28;19921;-34
2022/05/29 01:02:09;;;;;;;;;;;;;;;11.22;100.00;101820.47;5012992;28;20008;-33
2022/05/29 01:04:38;;;;;;;;;;;;;;;11.17;100.00;101833.63;5012293;28;19926;-29
2022/05/29 01:07:08;;;;;;;;;;;;;;;11.11;100.00;101827.19;5013215;28;20359;-38
2022/05/29 01:09:36;;;;;;;;;;;;;;;11.07;100.00;101825.22;5012815;28;19928;-28
2022/05/29 01:12:07;;;;;;;;;;;;;;;11.01;100.00;101822.41;5011215;28;19972;-33
2022/05/29 01:14:41;;;;;;;;;;;;;;;10.97;100.00;101818.53;5012757;28;19925;-32
2022/05/29 01:17:16;;;;;;;;;;;;;;;10.97;100.00;101817.69;5012696;28;19944;-36
2022/05/29 01:19:54;;;;;;;;;;;;;;;10.94;100.00;101818.25;5011969;28;19927;-30
2022/05/29 01:22:32;;;;;;;;;;;;;;;10.93;100.00;101809.03;5012622;28;20367;-35
2022/05/29 01:25:07;;;;;;;;;;;;;;;10.90;100.00;101812.38;5012339;28;19953;-32
2022/05/29 01:27:48;;;;;;;;;;;;;;;10.87;100.00;101806.50;5012909;28;20299;-33
2022/05/29 01:30:18;;;;;;;;;;;;;;;10.84;97.75;101807.88;5012574;28;19925;-34
2022/05/29 01:32:50;;;;;;;;;;;;;;;10.85;97.26;101803.97;5011892;28;19921;-34
2022/05/29 01:35:23;;;;;;;;;;;;;;;10.89;97.98;101804.28;5012427;28;20022;-31
2022/05/29 01:37:52;;;;;;;;;;;;;;;10.92;99.47;101804.56;5012483;28;19921;-33
2022/05/29 01:40:25;;;;;;;;;;;;;;;10.96;100.00;101796.47;5011627;28;19925;-30
2022/05/29 01:42:54;;;;;;;;;;;;;;;10.98;100.00;101791.44;5012372;28;19923;-36
2022/05/29 01:45:27;;;;;;;;;;;;;;;11.02;100.00;101792.53;5012337;28;20326;-35
2022/05/29 01:47:57;;;;;;;;;;;;;;;11.04;100.00;101804.25;5011589;28;19921;-30
2022/05/29 01:50:27;;;;;;;;;;;;;;;11.03;100.00;101799.78;5012337;28;19928;-32
2022/05/29 01:52:57;;;;;;;;;;;;;;;11.00;100.00;101790.00;5012360;28;19921;-39
2022/05/29 01:55:29;;;;;;;;;;;;;;;11.01;100.00;101794.47;5011701;28;20020;-34
2022/05/29 01:58:00;;;;;;;;;;;;;;;11.00;100.00;101784.44;5011381;28;19926;-32
2022/05/29 02:00:29;;;;;;;;;;;;;;;11.00;100.00;101778.00;5011375;28;20708;-36
2022/05/29 02:03:00;;;;;;;;;;;;;;;11.00;100.00;101780.78;5012136;28;20556;-35
2022/05/29 02:05:29;;;;;;;;;;;;;;;11.01;100.00;101779.69;5012157;28;19987;-38
2022/05/29 02:08:00;;;;;;;;;;;;;;;11.04;100.00;101779.97;5011296;28;19921;-32
2022/05/29 02:10:31;;;;;;;;;;;;;;;11.08;100.00;101776.63;5011892;28;19921;-32
2022/05/29 02:13:03;;;;;;;;;;;;;;;11.10;100.00;101769.63;5011858;28;19950;-36
2022/05/29 02:15:38;;;;;;;;;;;;;;;11.14;100.00;101773.56;5011138;28;20295;-36
2022/05/29 02:18:09;;;;;;;;;;;;;;;11.17;100.00;101770.19;5011728;28;20355;-36
2022/05/29 02:20:40;;;;;;;;;;;;;;;11.18;100.00;101768.25;5011843;28;20291;-33
2022/05/29 02:23:11;;;;;;;;;;;;;;;11.15;100.00;101761.25;5011082;28;19932;-36
2022/05/29 02:25:40;;;;;;;;;;;;;;;11.12;100.00;101766.56;5011659;28;19928;-36
2022/05/29 02:28:10;;;;;;;;;;;;;;;11.09;100.00;101765.16;5011643;28;19925;-34
2022/05/29 02:30:45;;;;;;;;;;;;;;;11.05;100.00;101761.25;5010916;28;20426;-35
2022/05/29 02:33:16;;;;;;;;;;;;;;;11.02;100.00;101757.06;5011721;28;19926;-34
2022/05/29 02:35:53;;;;;;;;;;;;;;;11.01;100.00;101762.94;5010760;28;20368;-29
2022/05/29 02:38:22;;;;;;;;;;;;;;;10.99;100.00;101754.81;5011576;28;19960;-35
2022/05/29 02:40:53;;;;;;;;;;;;;;;10.97;100.00;101757.09;5011475;28;19926;-40
2022/05/29 02:43:24;;;;;;;;;;;;;;;10.94;100.00;101763.22;5011109;28;19944;-32
2022/05/29 02:45:56;;;;;;;;;;;;;;;10.91;100.00;101758.19;5011562;28;19921;-31
2022/05/29 02:48:27;;;;;;;;;;;;;;;10.89;100.00;101754.84;5011577;28;20433;-30
2022/05/29 02:51:02;;;;;;;;;;;;;;;10.86;100.00;101746.19;5010948;28;19926;-29
2022/05/29 02:53:29;;;;;;;;;;;;;;;10.85;100.00;101744.50;5011347;28;19921;-33
2022/05/29 02:55:57;;;;;;;;;;;;;;;10.83;100.00;101750.38;5011442;28;19933;-30
2022/05/29 02:58:27;;;;;;;;;;;;;;;10.81;100.00;101738.63;5010714;28;20371;-31
2022/05/29 03:01:03;;;;;;;;;;;;;;;10.81;100.00;101737.81;5011165;28;19922;-33
2022/05/29 03:03:34;;;;;;;;;;;;;;;10.80;100.00;101741.72;5010847;28;19921;-33
2022/05/29 03:06:08;;;;;;;;;;;;;;;10.73;100.00;101742.00;5011310;28;20394;-31
2022/05/29 03:08:47;;;;;;;;;;;;;;;10.67;100.00;101734.75;5011138;28;19969;-32
2022/05/29 03:11:21;;;;;;;;;;;;;;;10.63;99.34;101734.44;5014000;28;19971;-26
2022/05/29 03:13:51;;;;;;;;;;;;;;;10.62;99.37;101729.16;5014155;28;19925;-35
2022/05/29 03:16:27;;;;;;;;;;;;;;;10.60;99.48;101729.41;5013169;28;19975;-30
2022/05/29 03:19:00;;;;;;;;;;;;;;;10.59;99.96;101733.31;5012413;28;19929;-33
2022/05/29 03:21:35;;;;;;;;;;;;;;;10.58;99.39;101739.22;5013151;28;19935;-34
2022/05/29 03:24:10;;;;;;;;;;;;;;;10.58;100.00;101734.47;5012885;28;20270;-36
2022/05/29 03:26:41;;;;;;;;;;;;;;;10.59;100.00;101736.13;5012641;28;19921;-38
2022/05/29 03:29:11;;;;;;;;;;;;;;;10.60;100.00;101729.41;5013826;28;20006;-35
2022/05/29 03:31:41;;;;;;;;;;;;;;;10.60;100.00;101720.22;5013953;28;19929;-33
2022/05/29 03:34:10;;;;;;;;;;;;;;;10.59;99.84;101724.94;5014569;28;19925;-27
2022/05/29 03:36:44;;;;;;;;;;;;;;;10.58;99.29;101714.94;5014443;28;19960;-31
2022/05/29 03:39:11;;;;;;;;;;;;;;;10.56;98.36;101721.91;5013773;28;19921;-29
2022/05/29 03:41:43;;;;;;;;;;;;;;;10.54;97.24;101710.19;5014257;28;19922;-34
2022/05/29 03:44:12;;;;;;;;;;;;;;;10.54;96.68;101712.97;5014344;28;20019;-39
2022/05/29 03:46:43;;;;;;;;;;;;;;;10.52;95.98;101707.66;5013267;28;19921;-33
2022/05/29 03:49:11;;;;;;;;;;;;;;;10.52;95.90;101707.66;5014296;28;19992;-35
2022/05/29 03:51:39;;;;;;;;;;;;;;;10.53;95.88;101712.13;5013990;28;19948;-32
2022/05/29 03:54:07;;;;;;;;;;;;;;;10.55;96.05;101709.91;5013437;28;19925;-30
2022/05/29 03:56:34;;;;;;;;;;;;;;;10.54;96.78;101699.00;5013874;28;19921;-35
2022/05/29 03:59:03;;;;;;;;;;;;;;;10.56;97.19;101703.22;5013815;28;19929;-37
2022/05/29 04:01:31;;;;;;;;;;;;;;;10.57;98.09;101702.09;5013112;28;20012;-36
2022/05/29 04:04:01;;;;;;;;;;;;;;;10.59;98.98;101708.22;5014281;28;19952;-29
2022/05/29 04:06:34;;;;;;;;;;;;;;;10.61;99.59;101702.34;5013949;28;19964;-28
2022/05/29 04:12:07;;;;;;;;;;;;;;;10.62;100.00;101702.06;5013865;28;20390;-35
2022/05/29 04:14:36;;;;;;;;;;;;;;;10.68;100.00;101711.28;5013118;28;19928;-35
2022/05/29 04:17:04;;;;;;;;;;;;;;;10.69;100.00;101710.19;5012158;28;20456;-38
2022/05/29 04:19:34;;;;;;;;;;;;;;;10.67;100.00;101710.44;5013646;28;19921;-29
2022/05/29 04:22:07;;;;;;;;;;;;;;;10.64;100.00;101713.78;5011635;28;20015;-30
2022/05/29 04:24:34;;;;;;;;;;;;;;;10.61;100.00;101727.47;5013505;28;19921;-28
2022/05/29 04:27:02;;;;;;;;;;;;;;;10.57;100.00;101723.59;5013335;28;19921;-36
2022/05/29 04:29:29;;;;;;;;;;;;;;;10.50;100.00;101723.00;5012997;28;19936;-32
2022/05/29 04:34:45;;;;;;;;;;;;;;;10.42;100.00;101727.16;5003371;28;19932;-37
2022/05/29 04:37:12;;;;;;;;;;;;;;;10.41;100.00;101725.50;5012678;28;19922;-36
2022/05/29 04:39:40;;;;;;;;;;;;;;;10.42;100.00;101724.38;5013412;28;19987;-32
2022/05/29 04:42:08;;;;;;;;;;;;;;;10.41;100.00;101722.69;5012551;28;19926;-36
2022/05/29 04:44:35;;;;;;;;;;;;;;;10.41;100.00;101724.66;5013164;28;20019;-37
2022/05/29 04:47:03;;;;;;;;;;;;;;;10.40;100.00;101711.81;5013081;28;19929;-32
2022/05/29 04:49:31;;;;;;;;;;;;;;;10.42;100.00;101707.63;5012136;28;19921;-34
2022/05/29 04:52:00;;;;;;;;;;;;;;;10.46;100.00;101697.59;5012000;28;19922;-38
2022/05/29 04:54:28;;;;;;;;;;;;;;;10.49;100.00;101699.84;5012753;28;20020;-35
2022/05/29 04:56:56;;;;;;;;;;;;;;;10.50;100.00;101690.34;5012434;28;19922;-36
2022/05/29 04:59:23;;;;;;;;;;;;;;;10.54;100.00;101693.44;5012984;28;19929;-35
2022/05/29 05:01:52;;;;;;;;;;;;;;;10.59;100.00;101699.84;5012595;28;19934;-32
2022/05/29 05:04:20;;;;;;;;;;;;;;;10.64;100.00;101694.25;5012260;28;20004;-35
2022/05/29 05:06:47;;;;;;;;;;;;;;;10.68;100.00;101689.78;5012637;28;19979;-31
2022/05/29 05:09:16;;;;;;;;;;;;;;;10.77;100.00;101689.25;5012785;28;19925;-32
2022/05/29 05:11:44;;;;;;;;;;;;;;;10.83;100.00;101688.09;5011907;28;19929;-31
2022/05/29 05:14:11;;;;;;;;;;;;;;;10.87;100.00;101684.47;5012457;28;19921;-30
2022/05/29 05:16:39;;;;;;;;;;;;;;;10.93;100.00;101686.16;5012362;28;19947;-33
2022/05/29 05:19:06;;;;;;;;;;;;;;;10.97;100.00;101678.88;5011771;28;19925;-34
2022/05/29 05:21:34;;;;;;;;;;;;;;;11.01;100.00;101679.13;5012500;28;20024;-31
2022/05/29 05:24:08;;;;;;;;;;;;;;;11.04;100.00;101679.41;5012098;28;19921;-36
2022/05/29 05:26:38;;;;;;;;;;;;;;;11.09;100.00;101678.56;5012216;28;19921;-30
2022/05/29 05:29:05;;;;;;;;;;;;;;;11.13;100.00;101681.66;5010725;28;20292;-35
2022/05/29 05:31:33;;;;;;;;;;;;;;;11.14;100.00;101681.38;5010639;28;19969;-33
2022/05/29 05:34:02;;;;;;;;;;;;;;;11.17;100.00;101689.19;5011308;28;19925;-33
2022/05/29 05:36:30;;;;;;;;;;;;;;;11.19;100.00;101683.31;5011080;28;20375;-31
2022/05/29 05:38:58;;;;;;;;;;;;;;;11.21;100.00;101676.31;5010522;28;19932;-29
2022/05/29 05:41:26;;;;;;;;;;;;;;;11.25;100.00;101674.63;5007601;28;20393;-31
2022/05/29 05:43:55;;;;;;;;;;;;;;;11.27;100.00;101680.75;5011376;28;20083;-38
2022/05/29 05:46:22;;;;;;;;;;;;;;;11.28;100.00;101681.59;5010643;28;19925;-31
2022/05/29 05:48:51;;;;;;;;;;;;;;;11.31;100.00;101689.41;5011066;28;19929;-28
2022/05/29 05:51:18;;;;;;;;;;;;;;;11.30;100.00;101704.50;5010592;28;20341;-30
2022/05/29 05:53:47;;;;;;;;;;;;;;;11.26;100.00;101701.44;5010108;28;20072;-32
2022/05/29 05:56:16;;;;;;;;;;;;;;;11.25;100.00;101702.56;5011012;28;19944;-31
2022/05/29 05:58:43;;;;;;;;;;;;;;;11.25;100.00;101699.75;5007729;28;19925;-33
2022/05/29 06:01:13;;;;;;;;;;;;;;;11.25;100.00;101705.34;5008893;28;19932;-33
2022/05/29 06:03:42;;;;;;;;;;;;;;;11.26;100.00;101700.59;5010681;28;19948;-29
2022/05/29 06:06:09;;;;;;;;;;;;;;;11.28;100.00;101704.78;5010394;28;20386;-32
2022/05/29 06:08:37;;;;;;;;;;;;;;;11.30;100.00;101707.31;5009085;28;20013;-34
2022/05/29 06:11:05;;;;;;;;;;;;;;;11.32;100.00;101697.53;5010476;28;19925;-34
2022/05/29 06:13:33;;;;;;;;;;;;;;;11.38;100.00;101698.34;5010213;28;19936;-33
2022/05/29 06:16:01;;;;;;;;;;;;;;;11.45;100.00;101693.28;5010333;28;19925;-29
2022/05/29 06:18:30;;;;;;;;;;;;;;;11.54;100.00;101702.75;5010288;28;20371;-31
2022/05/29 06:20:58;;;;;;;;;;;;;;;11.62;100.00;101696.56;5010321;28;19929;-36
2022/05/29 06:23:26;;;;;;;;;;;;;;;11.71;100.00;101706.03;5010666;28;19935;-30
2022/05/29 06:25:53;;;;;;;;;;;;;;;11.81;100.00;101699.59;5010550;28;19921;-36
2022/05/29 06:28:21;;;;;;;;;;;;;;;11.96;100.00;101702.31;5004978;28;19929;-32
2022/05/29 06:30:48;;;;;;;;;;;;;;;12.08;100.00;101697.22;5009593;28;19936;-36
2022/05/29 06:33:16;;;;;;;;;;;;;;;12.16;100.00;101701.38;5009734;28;19921;-37
2022/05/29 06:35:45;;;;;;;;;;;;;;;12.17;100.00;101707.81;5009548;28;19925;-33
2022/05/29 06:38:12;;;;;;;;;;;;;;;12.11;100.00;101704.19;5009458;28;19921;-33
2022/05/29 06:40:42;;;;;;;;;;;;;;;12.01;100.00;101710.66;5009490;28;19925;-34
2022/05/29 06:43:11;;;;;;;;;;;;;;;11.94;100.00;101706.53;5009168;28;20542;-32
2022/05/29 06:45:39;;;;;;;;;;;;;;;11.89;100.00;101703.75;5008640;28;20438;-32
2022/05/29 06:48:07;;;;;;;;;;;;;;;11.87;100.00;101701.25;5010106;28;19932;-34
2022/05/29 06:50:35;;;;;;;;;;;;;;;11.90;100.00;101705.44;5009347;28;19932;-34
2022/05/29 06:53:04;;;;;;;;;;;;;;;11.98;100.00;101702.88;5005094;28;19922;-31
2022/05/29 06:55:31;;;;;;;;;;;;;;;12.05;100.00;101706.16;5008883;28;20588;-35
2022/05/29 06:57:59;;;;;;;;;;;;;;;12.12;100.00;101703.06;5007746;28;20008;-35
2022/05/29 07:08:56;;;;;;;;;;;;;;;12.81;100.00;101695.53;4936561;29;19927;-29
2022/05/29 07:11:25;;;;;;;;;;;;;;;13.05;100.00;101690.81;4991566;28;20295;-30
2022/05/29 07:13:53;;;;;;;;;;;;;;;13.31;100.00;101695.06;5009930;28;19925;-36
2022/05/29 07:16:21;;;;;;;;;;;;;;;13.48;100.00;101685.34;5005733;28;19929;-32
2022/05/29 07:18:50;;;;;;;;;;;;;;;13.48;100.00;101704.97;5004259;28;19983;-32
2022/05/29 07:21:20;;;;;;;;;;;;;;;13.29;99.73;101702.94;5009241;28;20007;-33
2022/05/29 07:23:48;;;;;;;;;;;;;;;13.05;100.00;101702.88;5009830;28;20328;-29
2022/05/29 07:26:17;;;;;;;;;;;;;;;12.90;100.00;101699.38;5010165;28;19936;-33
2022/05/29 07:28:45;;;;;;;;;;;;;;;12.82;100.00;101706.44;5010082;28;19921;-33
2022/05/29 07:31:12;;;;;;;;;;;;;;;12.75;100.00;101705.97;5009587;28;19940;-29
2022/05/29 07:33:41;;;;;;;;;;;;;;;12.71;100.00;101700.09;5010438;28;19926;-30
2022/05/29 07:36:09;;;;;;;;;;;;;;;12.71;100.00;101700.09;5010789;28;19922;-36
2022/05/29 07:38:37;;;;;;;;;;;;;;;12.68;100.00;101700.69;5009978;28;19921;-29
2022/05/29 07:43:18;;;;;;;;;;;;;;;12.72;100.00;101704.59;5010454;28;19922;-37
2022/05/29 07:43:53;;;;;;;;;;;;;;;12.83;100.00;101701.69;5008898;28;19925;-34
2022/05/29 07:46:21;;;;;;;;;;;;;;;12.87;100.00;101694.38;5009573;28;19925;-34
2022/05/29 07:48:49;;;;;;;;;;;;;;;12.92;99.35;101697.97;5011058;28;20013;-30
2022/05/29 07:51:16;;;;;;;;;;;;;;;13.02;98.66;101695.06;5010784;28;19933;-32
2022/05/29 07:53:45;;;;;;;;;;;;;;;13.09;95.70;101698.34;5010242;28;20322;-35
2022/05/29 07:56:16;;;;;;;;;;;;;;;13.20;95.09;101696.28;5011196;28;19960;-33
2022/05/29 07:58:44;;;;;;;;;;;;;;;13.32;92.77;101702.34;5013998;28;19927;-34
2022/05/29 08:01:13;;;;;;;;;;;;;;;13.41;90.53;101694.94;5013629;28;19966;-32
2022/05/29 08:03:41;;;;;;;;;;;;;;;13.54;90.02;101695.38;5014079;28;19921;-35
2022/05/29 08:06:09;;;;;;;;;;;;;;;13.65;87.68;101697.75;5013351;28;19921;-32
2022/05/29 08:08:37;;;;;;;;;;;;;;;13.79;86.74;101701.47;5014184;28;19944;-39
2022/05/29 08:11:04;;;;;;;;;;;;;;;13.88;83.56;101703.63;5013780;28;19922;-30
2022/05/29 08:13:33;;;;;;;;;;;;;;;13.96;81.92;101697.34;5013145;28;20020;-35
2022/05/29 08:16:01;;;;;;;;;;;;;;;14.05;82.22;101698.34;5014385;28;19929;-36
2022/05/29 08:18:30;;;;;;;;;;;;;;;14.25;83.39;101695.22;5013859;28;19929;-30
2022/05/29 08:20:58;;;;;;;;;;;;;;;14.39;82.21;101698.09;5013235;28;19933;-30
2022/05/29 08:23:26;;;;;;;;;;;;;;;14.48;81.20;101699.13;5013543;28;19972;-33
2022/05/29 08:31:24;;;;;;;;;;;;;;;14.37;77.35;101706.03;5013561;28;19921;-34
2022/05/29 08:33:53;;;;;;;;;;;;;;;14.32;75.65;101712.53;5013620;28;19980;-30
2022/05/29 08:36:24;;;;;;;;;;;;;;;14.24;75.44;101715.19;5012469;28;19925;-35
2022/05/29 08:38:53;;;;;;;;;;;;;;;14.14;76.74;101713.38;5013594;28;19927;-33
2022/05/29 08:41:23;;;;;;;;;;;;;;;14.05;77.43;101716.00;5012321;28;19952;-32
2022/05/29 08:43:58;;;;;;;;;;;;;;;14.03;78.61;101720.25;5013336;28;19929;-38
2022/05/29 08:46:30;;;;;;;;;;;;;;;14.00;78.50;101713.28;5013425;28;19921;-32
2022/05/29 08:48:59;;;;;;;;;;;;;;;14.02;79.29;101710.16;5012595;28;20351;-32
2022/05/29 08:51:36;;;;;;;;;;;;;;;13.97;77.84;101707.44;5013292;28;19929;-39
2022/05/29 08:54:09;;;;;;;;;;;;;;;13.98;78.18;101714.72;5012816;28;20261;-33
2022/05/29 08:56:42;;;;;;;;;;;;;;;14.02;78.51;101713.81;5012562;28;19928;-37
2022/05/29 08:59:14;;;;;;;;;;;;;;;14.17;79.39;101700.72;5012895;28;19926;-35
2022/05/29 09:01:48;;;;;;;;;;;;;;;14.32;78.98;101706.09;5011630;28;19925;-35
2022/05/29 09:04:24;;;;;;;;;;;;;;;14.44;77.25;101707.31;5012166;28;19932;-37
2022/05/29 09:06:53;;;;;;;;;;;;;;;14.60;75.99;101705.09;5012451;28;20379;-31
2022/05/29 09:09:32;;;;;;;;;;;;;;;14.84;74.87;101693.75;5012259;28;20523;-35
2022/05/29 09:12:02;;;;;;;;;;;;;;;15.24;75.14;101694.16;5012341;28;19921;-32
2022/05/29 09:14:34;;;;;;;;;;;;;;;15.69;73.25;101689.63;5012600;28;19921;-37
2022/05/29 09:17:06;;;;;;;;;;;;;;;16.20;69.94;101695.78;5011299;28;20468;-39
2022/05/29 09:19:37;;;;;;;;;;;;;;;16.63;69.11;101695.34;5012907;28;20020;-33
2022/05/29 09:22:10;;;;;;;;;;;;;;;16.98;69.24;101690.00;5012673;28;20359;-36
2022/05/29 09:24:42;;;;;;;;;;;;;;;17.36;67.79;101684.72;5012166;28;19925;-37
2022/05/29 09:27:10;;;;;;;;;;;;;;;17.62;62.17;101693.25;5012706;28;19921;-31
2022/05/29 09:29:38;;;;;;;;;;;;;;;17.93;59.90;101691.25;5012192;28;20390;-31
2022/05/29 09:32:10;;;;;;;;;;;;;;;18.20;57.80;101682.47;5011838;28;19922;-34
2022/05/29 09:34:40;;;;;;;;;;;;;;;18.48;56.47;101680.16;5011337;28;19928;-30
2022/05/29 09:37:12;;;;;;;;;;;;;;;18.51;53.85;101678.66;5012105;28;19943;-39
2022/05/29 09:39:46;;;;;;;;;;;;;;;18.51;52.73;101689.97;5012171;28;19928;-33
2022/05/29 09:42:16;;;;;;;;;;;;;;;18.48;51.74;101683.00;5012340;28;20371;-29
2022/05/29 09:45:02;;;;;;;;;;;;;;;18.22;51.23;101679.31;5010714;28;20374;-34
2022/05/29 09:50:22;;;;;;;;;;;;;;;17.71;53.25;101680.88;5012033;28;19925;-31
2022/05/29 09:52:50;;;;;;;;;;;;;;;17.51;53.94;101682.28;5011476;28;19921;-34
2022/05/29 09:55:23;;;;;;;;;;;;;;;17.32;54.12;101689.34;5011004;28;20298;-36
2022/05/29 09:57:53;;;;;;;;;;;;;;;17.23;56.13;101678.81;5010904;28;19922;-31
2022/05/29 10:00:28;;;;;;;;;;;;;;;17.21;56.01;101683.97;5009055;28;20398;-33
2022/05/29 10:02:57;;;;;;;;;;;;;;;17.05;53.92;101693.16;5009680;28;19925;-37
2022/05/29 10:05:27;;;;;;;;;;;;;;;16.88;56.04;101688.25;5010783;28;19922;-36
2022/05/29 10:07:56;;;;;;;;;;;;;;;16.76;57.87;101683.22;5010721;28;19921;-37
2022/05/29 10:10:34;;;;;;;;;;;;;;;16.63;58.49;101689.72;5011014;28;19925;-32
2022/05/29 10:13:02;;;;;;;;;;;;;;;16.52;59.53;101689.13;5010240;28;19956;-36
2022/05/29 10:15:34;;;;;;;;;;;;;;;16.38;61.03;101693.16;5010924;28;20524;-34
2022/05/29 10:18:05;;;;;;;;;;;;;;;16.19;62.86;101694.13;5010935;28;20294;-32
2022/05/29 10:20:35;;;;;;;;;;;;;;;15.95;63.07;101684.28;5009090;28;20016;-36
2022/05/29 10:23:04;;;;;;;;;;;;;;;15.81;64.76;101689.91;5010944;28;19930;-35
2022/05/29 10:25:33;;;;;;;;;;;;;;;15.72;65.55;101680.56;5010833;28;19925;-35
2022/05/29 10:28:02;;;;;;;;;;;;;;;15.61;64.28;101679.09;5010099;28;19945;-37
2022/05/29 10:30:32;;;;;;;;;;;;;;;15.44;63.87;101683.34;5010680;28;19925;-35
2022/05/29 10:33:03;;;;;;;;;;;;;;;15.37;64.78;101685.75;5010096;28;19926;-30
2022/05/29 10:35:32;;;;;;;;;;;;;;;15.34;64.59;101679.91;5010268;28;19921;-34
2022/05/29 10:38:15;;;;;;;;;;;;;;;15.30;64.87;101685.31;5010693;28;20044;-35
2022/05/29 10:40:43;;;;;;;;;;;;;;;15.27;65.94;101683.13;5010015;28;20393;-32
2022/05/29 10:43:10;;;;;;;;;;;;;;;15.28;68.26;101684.78;5009949;28;19922;-34
2022/05/29 10:45:42;;;;;;;;;;;;;;;15.32;68.44;101688.66;5010789;28;20298;-35
2022/05/29 10:48:25;;;;;;;;;;;;;;;15.33;68.65;101687.50;5009933;28;20474;-32
2022/05/29 10:51:00;;;;;;;;;;;;;;;15.36;68.66;101686.06;5008951;28;20282;-33
2022/05/29 10:53:34;;;;;;;;;;;;;;;15.34;67.88;101689.19;5009372;28;20349;-31
2022/05/29 10:56:10;;;;;;;;;;;;;;;15.39;67.38;101682.59;5005322;28;20386;-35
2022/05/29 10:58:56;;;;;;;;;;;;;;;15.37;66.41;101685.75;5008879;28;19925;-38
2022/05/29 11:04:36;;;;;;;;;;;;;;;15.50;67.30;101673.66;5010411;28;19921;-34
2022/05/29 11:07:22;;;;;;;;;;;;;;;15.65;66.77;101674.50;5009685;28;19921;-36
2022/05/29 11:09:57;;;;;;;;;;;;;;;15.79;65.02;101672.50;4988949;28;19928;-36
2022/05/29 11:12:50;;;;;;;;;;;;;;;15.88;62.15;101673.44;5010478;28;19948;-32
2022/05/29 11:15:22;;;;;;;;;;;;;;;15.90;61.99;101664.69;5010301;28;20371;-31
2022/05/29 11:17:57;;;;;;;;;;;;;;;15.93;61.75;101664.91;5009519;28;19922;-38
2022/05/29 11:20:43;;;;;;;;;;;;;;;15.94;59.25;101674.19;5009991;28;19929;-38
2022/05/29 11:23:19;;;;;;;;;;;;;;;16.00;59.53;101670.91;5009455;28;20371;-29
2022/05/29 11:25:55;;;;;;;;;;;;;;;16.15;60.11;101676.22;5009750;28;20402;-31
2022/05/29 11:28:30;;;;;;;;;;;;;;;16.32;60.07;101671.88;5010037;28;20416;-36
2022/05/29 11:31:05;;;;;;;;;;;;;;;16.48;59.11;101665.56;5010863;28;19922;-35
2022/05/29 11:33:41;;;;;;;;;;;;;;;16.53;55.61;101673.06;5013660;28;20465;-34
2022/05/29 11:36:14;;;;;;;;;;;;;;;16.53;56.76;101670.25;5013877;28;19925;-30
2022/05/29 11:38:52;;;;;;;;;;;;;;;16.56;57.54;101671.59;5013048;28;20029;-30
2022/05/29 11:41:25;;;;;;;;;;;;;;;16.58;57.59;101675.75;5013813;28;19944;-31
2022/05/29 11:43:56;;;;;;;;;;;;;;;16.65;58.61;101670.50;5013332;28;19926;-33
2022/05/29 11:52:03;;;;;;;;;;;;;;;16.93;58.41;101671.22;5011865;28;19921;-30
2022/05/29 11:54:34;;;;;;;;;;;;;;;16.96;56.99;101659.28;5014157;28;20405;-36
2022/05/29 11:57:06;;;;;;;;;;;;;;;16.88;55.50;101655.25;5014348;28;20290;-33
2022/05/29 11:59:43;;;;;;;;;;;;;;;16.77;54.75;101656.69;5013919;28;19922;-40
2022/05/29 12:02:18;;;;;;;;;;;;;;;16.68;56.20;101655.78;5014292;28;20300;-37
2022/05/29 12:04:51;;;;;;;;;;;;;;;16.61;58.49;101651.72;5014388;28;20304;-35
2022/05/29 12:07:22;;;;;;;;;;;;;;;16.53;59.78;101661.78;5013618;28;20272;-37
2022/05/29 12:09:54;;;;;;;;;;;;;;;16.47;60.47;101658.25;5014041;28;19944;-35
2022/05/29 12:12:26;;;;;;;;;;;;;;;16.44;60.37;101653.25;5013429;28;19933;-31
2022/05/29 12:14:58;;;;;;;;;;;;;;;16.52;60.57;101658.13;5013994;28;20512;-32
2022/05/29 12:17:29;;;;;;;;;;;;;;;16.70;60.48;101659.13;5013975;28;20028;-31
2022/05/29 12:20:02;;;;;;;;;;;;;;;16.82;58.06;101652.88;5013524;28;19921;-34
2022/05/29 12:22:35;;;;;;;;;;;;;;;17.03;57.37;101656.00;5014137;28;19957;-31
2022/05/29 12:25:04;;;;;;;;;;;;;;;17.13;56.66;101655.72;5014051;28;19957;-32
2022/05/29 12:27:33;;;;;;;;;;;;;;;17.17;56.05;101662.38;5012937;28;19921;-34
2022/05/29 12:30:05;;;;;;;;;;;;;;;17.18;57.06;101653.59;5013751;28;20290;-37
2022/05/29 12:32:34;;;;;;;;;;;;;;;17.17;56.07;101656.75;5013869;28;19921;-34
2022/05/29 12:35:03;;;;;;;;;;;;;;;17.21;57.14;101649.28;5012762;28;19927;-34
2022/05/29 12:38:00;;;;;;;;;;;;;;;17.18;55.85;101644.31;5011819;28;19921;-32
2022/05/29 12:40:48;;;;;;;;;;;;;;;17.16;56.87;101653.09;5007394;28;19921;-35
2022/05/29 12:43:44;;;;;;;;;;;;;;;17.20;57.04;101647.63;5012751;28;19987;-37
2022/05/29 12:46:20;;;;;;;;;;;;;;;17.17;55.23;101637.84;5012820;28;19962;-37
2022/05/29 12:49:06;;;;;;;;;;;;;;;17.18;56.66;101636.69;5012701;28;20016;-29
2022/05/29 12:51:54;;;;;;;;;;;;;;;17.27;56.23;101639.53;5006328;28;19921;-35
2022/05/29 12:54:41;;;;;;;;;;;;;;;17.38;59.18;101652.19;5012274;28;20367;-37
2022/05/29 12:57:24;;;;;;;;;;;;;;;17.45;58.93;101646.91;5013405;28;19991;-32
2022/05/29 13:00:03;;;;;;;;;;;;;;;17.42;57.19;101643.88;5013345;28;19922;-33
2022/05/29 13:02:39;;;;;;;;;;;;;;;17.42;58.53;101647.53;5012334;28;19922;-35
2022/05/29 13:05:21;;;;;;;;;;;;;;;17.52;59.57;101647.25;5013036;28;19933;-34
2022/05/29 13:07:56;;;;;;;;;;;;;;;17.51;57.07;101648.41;5012971;28;19929;-32
2022/05/29 13:10:27;;;;;;;;;;;;;;;17.50;56.52;101649.56;5012032;28;19922;-38
2022/05/29 13:13:02;;;;;;;;;;;;;;;17.54;56.69;101653.41;5013304;28;19932;-31
2022/05/29 13:15:32;;;;;;;;;;;;;;;17.55;55.55;101640.97;5011906;28;19921;-32
2022/05/29 13:18:02;;;;;;;;;;;;;;;17.55;53.93;101648.59;5012894;28;20012;-38
2022/05/29 13:20:30;;;;;;;;;;;;;;;17.47;54.30;101653.03;5012393;28;19928;-31
2022/05/29 13:23:02;;;;;;;;;;;;;;;17.46;54.40;101648.56;5010711;28;19921;-37